sensor_id;sensor_type;location;lat;lon;timestamp;P1;durP1;ratioP1;P2;durP2;ratioP2
45734;SDS011;31446;49.632;8.328;2024-02-04T00:08:21;0.93;;;0.73;;
45734;SDS011;31446;49.632;8.328;2024-02-04T00:23:27;1.95;;;0.70;;
45734;SDS011;31446;49.632;8.328;2024-02-04T00:38:33;0.80;;;0.80;;
45734;SDS011;31446;49.632;8.328;2024-02-04T00:53:39;0.80;;;0.52;;
45734;SDS011;31446;49.632;8.328;2024-02-04T01:08:45;0.80;;;0.70;;
45734;SDS011;31446;49.632;8.328;2024-02-04T01:23:51;1.30;;;0.60;;
45734;SDS011;31446;49.632;8.328;2024-02-04T01:38:57;2.40;;;0.63;;
45734;SDS011;31446;49.632;8.328;2024-02-04T01:54:04;0.45;;;0.45;;
45734;SDS011;31446;49.632;8.328;2024-02-04T02:09:11;0.50;;;0.50;;
45734;SDS011;31446;49.632;8.328;2024-02-04T02:40:05;0.75;;;0.40;;
45734;SDS011;31446;49.632;8.328;2024-02-04T02:55:15;1.00;;;0.40;;
45734;SDS011;31446;49.632;8.328;2024-02-04T03:10:21;0.40;;;0.40;;
45734;SDS011;31446;49.632;8.328;2024-02-04T03:25:27;0.55;;;0.50;;
45734;SDS011;31446;49.632;8.328;2024-02-04T03:40:33;0.60;;;0.60;;
45734;SDS011;31446;49.632;8.328;2024-02-04T03:55:39;0.70;;;0.70;;
45734;SDS011;31446;49.632;8.328;2024-02-04T04:10:46;0.52;;;0.50;;
45734;SDS011;31446;49.632;8.328;2024-02-04T04:25:53;0.20;;;0.20;;
45734;SDS011;31446;49.632;8.328;2024-02-04T04:40:59;0.28;;;0.28;;
45734;SDS011;31446;49.632;8.328;2024-02-04T04:56:06;0.38;;;0.30;;
45734;SDS011;31446;49.632;8.328;2024-02-04T05:11:12;0.88;;;0.30;;
45734;SDS011;31446;49.632;8.328;2024-02-04T05:26:19;0.80;;;0.22;;
45734;SDS011;31446;49.632;8.328;2024-02-04T05:41:26;0.28;;;0.25;;
45734;SDS011;31446;49.632;8.328;2024-02-04T05:56:32;1.17;;;0.10;;
45734;SDS011;31446;49.632;8.328;2024-02-04T06:11:38;0.10;;;0.10;;
45734;SDS011;31446;49.632;8.328;2024-02-04T06:26:44;1.45;;;0.10;;
45734;SDS011;31446;49.632;8.328;2024-02-04T06:41:50;0.00;;;0.00;;
45734;SDS011;31446;49.632;8.328;2024-02-04T06:56:56;0.00;;;0.00;;
45734;SDS011;31446;49.632;8.328;2024-02-04T07:12:03;0.00;;;0.00;;
45734;SDS011;31446;49.632;8.328;2024-02-04T07:27:09;0.00;;;0.00;;
45734;SDS011;31446;49.632;8.328;2024-02-04T07:42:15;0.10;;;0.00;;
45734;SDS011;31446;49.632;8.328;2024-02-04T07:57:21;0.63;;;0.28;;
45734;SDS011;31446;49.632;8.328;2024-02-04T08:12:27;0.38;;;0.30;;
45734;SDS011;31446;49.632;8.328;2024-02-04T08:27:34;0.10;;;0.10;;
45734;SDS011;31446;49.632;8.328;2024-02-04T08:42:40;0.52;;;0.30;;
45734;SDS011;31446;49.632;8.328;2024-02-04T08:57:46;1.45;;;0.20;;
45734;SDS011;31446;49.632;8.328;2024-02-04T09:12:53;0.90;;;0.25;;
45734;SDS011;31446;49.632;8.328;2024-02-04T09:27:59;0.20;;;0.20;;
45734;SDS011;31446;49.632;8.328;2024-02-04T09:43:05;0.20;;;0.20;;
45734;SDS011;31446;49.632;8.328;2024-02-04T09:58:13;0.13;;;0.13;;
45734;SDS011;31446;49.632;8.328;2024-02-04T10:13:21;0.20;;;0.20;;
45734;SDS011;31446;49.632;8.328;2024-02-04T10:28:29;1.15;;;0.50;;
45734;SDS011;31446;49.632;8.328;2024-02-04T10:43:36;0.10;;;0.10;;
45734;SDS011;31446;49.632;8.328;2024-02-04T10:58:48;0.10;;;0.10;;
45734;SDS011;31446;49.632;8.328;2024-02-04T11:14:00;1.48;;;0.50;;
45734;SDS011;31446;49.632;8.328;2024-02-04T11:29:08;0.95;;;0.32;;
45734;SDS011;31446;49.632;8.328;2024-02-04T11:44:21;0.40;;;0.40;;
45734;SDS011;31446;49.632;8.328;2024-02-04T11:59:28;0.43;;;0.43;;
45734;SDS011;31446;49.632;8.328;2024-02-04T12:14:38;0.50;;;0.50;;
45734;SDS011;31446;49.632;8.328;2024-02-04T12:29:53;0.40;;;0.40;;
45734;SDS011;31446;49.632;8.328;2024-02-04T12:45:22;0.65;;;0.35;;
45734;SDS011;31446;49.632;8.328;2024-02-04T13:00:32;0.47;;;0.30;;
45734;SDS011;31446;49.632;8.328;2024-02-04T13:15:39;5.35;;;1.45;;
45734;SDS011;31446;49.632;8.328;2024-02-04T13:30:46;0.70;;;0.35;;
45734;SDS011;31446;49.632;8.328;2024-02-04T13:45:52;0.38;;;0.35;;
45734;SDS011;31446;49.632;8.328;2024-02-04T14:00:59;0.30;;;0.30;;
45734;SDS011;31446;49.632;8.328;2024-02-04T14:16:06;0.60;;;0.30;;
45734;SDS011;31446;49.632;8.328;2024-02-04T14:31:12;0.40;;;0.40;;
45734;SDS011;31446;49.632;8.328;2024-02-04T14:46:18;1.77;;;1.38;;
45734;SDS011;31446;49.632;8.328;2024-02-04T15:01:24;1.17;;;1.10;;
45734;SDS011;31446;49.632;8.328;2024-02-04T15:16:31;2.65;;;1.35;;
45734;SDS011;31446;49.632;8.328;2024-02-04T15:31:38;1.17;;;0.90;;
45734;SDS011;31446;49.632;8.328;2024-02-04T15:46:46;1.30;;;1.20;;
45734;SDS011;31446;49.632;8.328;2024-02-04T16:01:56;1.00;;;1.00;;
45734;SDS011;31446;49.632;8.328;2024-02-04T16:17:05;1.10;;;1.00;;
45734;SDS011;31446;49.632;8.328;2024-02-04T16:32:16;1.25;;;1.10;;
45734;SDS011;31446;49.632;8.328;2024-02-04T16:47:22;1.48;;;0.77;;
45734;SDS011;31446;49.632;8.328;2024-02-04T17:02:31;2.90;;;0.70;;
45734;SDS011;31446;49.632;8.328;2024-02-04T17:17:37;1.45;;;0.47;;
45734;SDS011;31446;49.632;8.328;2024-02-04T17:32:46;2.05;;;0.70;;
45734;SDS011;31446;49.632;8.328;2024-02-04T17:47:57;1.42;;;0.50;;
45734;SDS011;31446;49.632;8.328;2024-02-04T18:03:05;0.98;;;0.40;;
45734;SDS011;31446;49.632;8.328;2024-02-04T18:18:11;0.20;;;0.20;;
45734;SDS011;31446;49.632;8.328;2024-02-04T18:33:18;1.10;;;0.32;;
45734;SDS011;31446;49.632;8.328;2024-02-04T18:48:26;0.20;;;0.20;;
45734;SDS011;31446;49.632;8.328;2024-02-04T19:03:32;0.25;;;0.25;;
45734;SDS011;31446;49.632;8.328;2024-02-04T19:18:39;0.65;;;0.20;;
45734;SDS011;31446;49.632;8.328;2024-02-04T19:33:48;0.68;;;0.40;;
45734;SDS011;31446;49.632;8.328;2024-02-04T19:48:54;0.20;;;0.10;;
45734;SDS011;31446;49.632;8.328;2024-02-04T20:04:00;0.40;;;0.30;;
45734;SDS011;31446;49.632;8.328;2024-02-04T20:19:16;0.20;;;0.20;;
45734;SDS011;31446;49.632;8.328;2024-02-04T20:34:27;0.93;;;0.30;;
45734;SDS011;31446;49.632;8.328;2024-02-04T20:49:46;1.27;;;0.20;;
45734;SDS011;31446;49.632;8.328;2024-02-04T21:04:52;0.38;;;0.20;;
45734;SDS011;31446;49.632;8.328;2024-02-04T21:19:58;0.55;;;0.20;;
45734;SDS011;31446;49.632;8.328;2024-02-04T21:35:07;0.32;;;0.32;;
45734;SDS011;31446;49.632;8.328;2024-02-04T21:50:13;0.20;;;0.20;;
45734;SDS011;31446;49.632;8.328;2024-02-04T22:05:21;0.20;;;0.20;;
45734;SDS011;31446;49.632;8.328;2024-02-04T22:20:27;0.32;;;0.30;;
45734;SDS011;31446;49.632;8.328;2024-02-04T22:35:33;0.30;;;0.20;;
45734;SDS011;31446;49.632;8.328;2024-02-04T22:50:40;0.40;;;0.40;;
45734;SDS011;31446;49.632;8.328;2024-02-04T23:05:46;2.63;;;0.30;;
45734;SDS011;31446;49.632;8.328;2024-02-04T23:20:52;0.45;;;0.20;;
45734;SDS011;31446;49.632;8.328;2024-02-04T23:35:58;1.05;;;0.28;;
45734;SDS011;31446;49.632;8.328;2024-02-04T23:51:07;0.43;;;0.30;;
